sensor_id;sensor_type;location;lat;lon;timestamp;P1;durP1;ratioP1;P2;durP2;ratioP2
29206;SDS011;16247;50.840;4.382;2022-09-03T00:01:53;9.73;;;4.10;;
29206;SDS011;16247;50.840;4.382;2022-09-03T00:04:31;7.20;;;3.33;;
29206;SDS011;16247;50.840;4.382;2022-09-03T00:07:11;5.45;;;3.58;;
29206;SDS011;16247;50.840;4.382;2022-09-03T00:12:21;5.38;;;3.85;;
29206;SDS011;16247;50.840;4.382;2022-09-03T00:18:00;5.28;;;3.05;;
29206;SDS011;16247;50.840;4.382;2022-09-03T00:20:45;6.82;;;3.25;;
29206;SDS011;16247;50.840;4.382;2022-09-03T00:23:21;8.38;;;3.20;;
29206;SDS011;16247;50.840;4.382;2022-09-03T00:28:41;4.43;;;3.53;;
29206;SDS011;16247;50.840;4.382;2022-09-03T00:34:02;4.88;;;3.20;;
29206;SDS011;16247;50.840;4.382;2022-09-03T00:36:42;4.82;;;3.20;;
29206;SDS011;16247;50.840;4.382;2022-09-03T00:39:11;3.30;;;2.97;;
29206;SDS011;16247;50.840;4.382;2022-09-03T01:01:06;5.53;;;2.53;;
29206;SDS011;16247;50.840;4.382;2022-09-03T01:14:28;4.93;;;3.08;;
29206;SDS011;16247;50.840;4.382;2022-09-03T01:20:19;8.55;;;2.80;;
29206;SDS011;16247;50.840;4.382;2022-09-03T01:28:55;9.32;;;3.88;;
29206;SDS011;16247;50.840;4.382;2022-09-03T01:31:28;4.40;;;2.88;;
29206;SDS011;16247;50.840;4.382;2022-09-03T01:34:09;6.88;;;3.17;;
29206;SDS011;16247;50.840;4.382;2022-09-03T01:39:51;6.95;;;3.10;;
29206;SDS011;16247;50.840;4.382;2022-09-03T01:45:42;6.65;;;3.55;;
29206;SDS011;16247;50.840;4.382;2022-09-03T01:56:44;8.38;;;4.07;;
29206;SDS011;16247;50.840;4.382;2022-09-03T02:02:17;5.55;;;4.03;;
29206;SDS011;16247;50.840;4.382;2022-09-03T02:04:57;5.38;;;3.63;;
29206;SDS011;16247;50.840;4.382;2022-09-03T02:07:40;7.85;;;3.67;;
29206;SDS011;16247;50.840;4.382;2022-09-03T02:10:12;4.88;;;3.80;;
29206;SDS011;16247;50.840;4.382;2022-09-03T02:12:40;4.78;;;3.78;;
29206;SDS011;16247;50.840;4.382;2022-09-03T02:15:11;5.90;;;4.15;;
29206;SDS011;16247;50.840;4.382;2022-09-03T02:17:40;7.35;;;3.75;;
29206;SDS011;16247;50.840;4.382;2022-09-03T02:20:09;7.47;;;4.45;;
29206;SDS011;16247;50.840;4.382;2022-09-03T02:22:39;7.28;;;5.00;;
29206;SDS011;16247;50.840;4.382;2022-09-03T02:25:06;10.25;;;4.30;;
29206;SDS011;16247;50.840;4.382;2022-09-03T02:27:35;7.53;;;5.00;;
29206;SDS011;16247;50.840;4.382;2022-09-03T02:30:02;5.90;;;5.00;;
29206;SDS011;16247;50.840;4.382;2022-09-03T02:32:30;10.73;;;5.70;;
29206;SDS011;16247;50.840;4.382;2022-09-03T02:34:57;8.30;;;5.13;;
29206;SDS011;16247;50.840;4.382;2022-09-03T02:37:23;7.80;;;5.00;;
29206;SDS011;16247;50.840;4.382;2022-09-03T02:39:48;8.75;;;5.90;;
29206;SDS011;16247;50.840;4.382;2022-09-03T02:42:19;7.00;;;5.70;;
29206;SDS011;16247;50.840;4.382;2022-09-03T02:47:40;8.00;;;6.25;;
29206;SDS011;16247;50.840;4.382;2022-09-03T02:50:08;8.77;;;5.57;;
29206;SDS011;16247;50.840;4.382;2022-09-03T02:52:34;8.48;;;5.82;;
29206;SDS011;16247;50.840;4.382;2022-09-03T02:55:00;8.48;;;6.40;;
29206;SDS011;16247;50.840;4.382;2022-09-03T02:57:26;11.60;;;6.68;;
29206;SDS011;16247;50.840;4.382;2022-09-03T02:59:52;12.05;;;7.20;;
29206;SDS011;16247;50.840;4.382;2022-09-03T03:02:19;9.85;;;6.07;;
29206;SDS011;16247;50.840;4.382;2022-09-03T03:04:47;10.35;;;6.68;;
29206;SDS011;16247;50.840;4.382;2022-09-03T03:07:13;8.60;;;5.55;;
29206;SDS011;16247;50.840;4.382;2022-09-03T03:09:43;10.38;;;6.63;;
29206;SDS011;16247;50.840;4.382;2022-09-03T03:15:31;8.40;;;6.38;;
29206;SDS011;16247;50.840;4.382;2022-09-03T03:17:58;8.10;;;6.85;;
29206;SDS011;16247;50.840;4.382;2022-09-03T03:20:25;11.95;;;6.65;;
29206;SDS011;16247;50.840;4.382;2022-09-03T03:22:50;10.05;;;7.28;;
29206;SDS011;16247;50.840;4.382;2022-09-03T03:25:16;9.07;;;6.20;;
29206;SDS011;16247;50.840;4.382;2022-09-03T03:27:42;8.85;;;6.90;;
29206;SDS011;16247;50.840;4.382;2022-09-03T03:30:08;10.70;;;6.82;;
29206;SDS011;16247;50.840;4.382;2022-09-03T03:32:38;9.63;;;6.25;;
29206;SDS011;16247;50.840;4.382;2022-09-03T03:35:05;10.45;;;6.75;;
29206;SDS011;16247;50.840;4.382;2022-09-03T03:37:31;8.93;;;6.00;;
29206;SDS011;16247;50.840;4.382;2022-09-03T03:39:57;7.50;;;5.80;;
29206;SDS011;16247;50.840;4.382;2022-09-03T03:42:25;8.98;;;5.70;;
29206;SDS011;16247;50.840;4.382;2022-09-03T03:44:51;7.05;;;5.15;;
29206;SDS011;16247;50.840;4.382;2022-09-03T03:47:17;7.18;;;4.78;;
29206;SDS011;16247;50.840;4.382;2022-09-03T03:49:44;5.45;;;4.38;;
29206;SDS011;16247;50.840;4.382;2022-09-03T03:52:09;7.43;;;4.07;;
29206;SDS011;16247;50.840;4.382;2022-09-03T03:54:35;7.15;;;4.20;;
29206;SDS011;16247;50.840;4.382;2022-09-03T03:57:02;6.38;;;4.90;;
29206;SDS011;16247;50.840;4.382;2022-09-03T03:59:30;7.50;;;4.70;;
29206;SDS011;16247;50.840;4.382;2022-09-03T04:01:59;8.93;;;5.60;;
29206;SDS011;16247;50.840;4.382;2022-09-03T04:04:25;5.82;;;5.25;;
29206;SDS011;16247;50.840;4.382;2022-09-03T04:06:50;6.38;;;4.72;;
29206;SDS011;16247;50.840;4.382;2022-09-03T04:09:16;5.18;;;4.57;;
29206;SDS011;16247;50.840;4.382;2022-09-03T04:11:41;9.32;;;4.60;;
29206;SDS011;16247;50.840;4.382;2022-09-03T04:14:07;4.90;;;4.40;;
29206;SDS011;16247;50.840;4.382;2022-09-03T04:16:34;9.43;;;4.15;;
29206;SDS011;16247;50.840;4.382;2022-09-03T04:19:00;4.00;;;3.40;;
29206;SDS011;16247;50.840;4.382;2022-09-03T04:21:26;4.88;;;4.10;;
29206;SDS011;16247;50.840;4.382;2022-09-03T04:23:54;4.18;;;3.55;;
29206;SDS011;16247;50.840;4.382;2022-09-03T04:26:26;7.80;;;3.50;;
29206;SDS011;16247;50.840;4.382;2022-09-03T04:29:02;5.47;;;3.72;;
29206;SDS011;16247;50.840;4.382;2022-09-03T04:31:33;4.45;;;3.58;;
29206;SDS011;16247;50.840;4.382;2022-09-03T04:34:00;14.02;;;3.88;;
29206;SDS011;16247;50.840;4.382;2022-09-03T04:36:27;6.22;;;3.92;;
29206;SDS011;16247;50.840;4.382;2022-09-03T04:38:55;4.55;;;4.00;;
29206;SDS011;16247;50.840;4.382;2022-09-03T04:41:24;5.72;;;4.47;;
29206;SDS011;16247;50.840;4.382;2022-09-03T04:43:53;5.65;;;4.63;;
29206;SDS011;16247;50.840;4.382;2022-09-03T04:46:21;5.47;;;3.88;;
29206;SDS011;16247;50.840;4.382;2022-09-03T04:48:50;6.35;;;4.55;;
29206;SDS011;16247;50.840;4.382;2022-09-03T04:51:20;6.35;;;4.68;;
29206;SDS011;16247;50.840;4.382;2022-09-03T04:53:52;10.82;;;5.00;;
29206;SDS011;16247;50.840;4.382;2022-09-03T04:56:26;5.47;;;4.72;;
29206;SDS011;16247;50.840;4.382;2022-09-03T04:58:57;5.50;;;4.65;;
29206;SDS011;16247;50.840;4.382;2022-09-03T05:01:25;6.05;;;4.93;;
29206;SDS011;16247;50.840;4.382;2022-09-03T05:03:57;7.72;;;5.10;;
29206;SDS011;16247;50.840;4.382;2022-09-03T05:06:25;6.75;;;4.72;;
29206;SDS011;16247;50.840;4.382;2022-09-03T05:08:52;10.85;;;5.15;;
29206;SDS011;16247;50.840;4.382;2022-09-03T05:11:20;9.27;;;5.18;;
29206;SDS011;16247;50.840;4.382;2022-09-03T05:16:44;6.60;;;5.80;;
29206;SDS011;16247;50.840;4.382;2022-09-03T05:19:13;9.93;;;5.53;;
29206;SDS011;16247;50.840;4.382;2022-09-03T05:21:42;7.97;;;5.90;;
29206;SDS011;16247;50.840;4.382;2022-09-03T05:24:09;8.07;;;5.57;;
29206;SDS011;16247;50.840;4.382;2022-09-03T05:26:37;9.25;;;4.75;;
29206;SDS011;16247;50.840;4.382;2022-09-03T05:29:06;9.18;;;5.85;;
29206;SDS011;16247;50.840;4.382;2022-09-03T05:31:34;10.25;;;6.50;;
29206;SDS011;16247;50.840;4.382;2022-09-03T05:34:03;6.43;;;5.60;;
29206;SDS011;16247;50.840;4.382;2022-09-03T05:36:31;6.70;;;6.00;;
29206;SDS011;16247;50.840;4.382;2022-09-03T05:39:01;6.75;;;5.85;;
29206;SDS011;16247;50.840;4.382;2022-09-03T05:41:28;8.23;;;5.82;;
29206;SDS011;16247;50.840;4.382;2022-09-03T05:43:54;7.00;;;5.70;;
29206;SDS011;16247;50.840;4.382;2022-09-03T05:46:23;6.55;;;5.63;;
29206;SDS011;16247;50.840;4.382;2022-09-03T05:48:57;8.02;;;6.47;;
29206;SDS011;16247;50.840;4.382;2022-09-03T05:51:27;7.00;;;5.55;;
29206;SDS011;16247;50.840;4.382;2022-09-03T05:53:54;6.60;;;5.93;;
29206;SDS011;16247;50.840;4.382;2022-09-03T05:56:20;8.52;;;6.03;;
29206;SDS011;16247;50.840;4.382;2022-09-03T05:58:53;6.50;;;5.75;;
29206;SDS011;16247;50.840;4.382;2022-09-03T06:01:25;7.45;;;5.80;;
29206;SDS011;16247;50.840;4.382;2022-09-03T06:03:53;7.35;;;5.88;;
29206;SDS011;16247;50.840;4.382;2022-09-03T06:06:19;10.25;;;6.57;;
29206;SDS011;16247;50.840;4.382;2022-09-03T06:08:49;5.93;;;5.28;;
29206;SDS011;16247;50.840;4.382;2022-09-03T06:11:19;7.88;;;5.88;;
29206;SDS011;16247;50.840;4.382;2022-09-03T06:13:47;11.45;;;6.38;;
29206;SDS011;16247;50.840;4.382;2022-09-03T06:16:12;7.07;;;5.53;;
29206;SDS011;16247;50.840;4.382;2022-09-03T06:18:38;6.43;;;5.13;;
29206;SDS011;16247;50.840;4.382;2022-09-03T06:21:04;7.03;;;5.13;;
29206;SDS011;16247;50.840;4.382;2022-09-03T06:23:32;5.88;;;5.25;;
29206;SDS011;16247;50.840;4.382;2022-09-03T06:25:59;10.05;;;5.85;;
29206;SDS011;16247;50.840;4.382;2022-09-03T06:28:36;7.57;;;5.50;;
29206;SDS011;16247;50.840;4.382;2022-09-03T06:31:05;7.60;;;5.60;;
29206;SDS011;16247;50.840;4.382;2022-09-03T06:33:33;7.72;;;5.00;;
29206;SDS011;16247;50.840;4.382;2022-09-03T06:36:01;7.22;;;4.88;;
29206;SDS011;16247;50.840;4.382;2022-09-03T06:38:29;5.47;;;4.88;;
29206;SDS011;16247;50.840;4.382;2022-09-03T06:40:58;6.32;;;4.55;;
29206;SDS011;16247;50.840;4.382;2022-09-03T06:43:31;6.72;;;5.07;;
29206;SDS011;16247;50.840;4.382;2022-09-03T06:46:00;5.28;;;4.78;;
29206;SDS011;16247;50.840;4.382;2022-09-03T06:48:29;5.32;;;4.55;;
29206;SDS011;16247;50.840;4.382;2022-09-03T06:53:26;6.43;;;4.47;;
29206;SDS011;16247;50.840;4.382;2022-09-03T06:58:24;9.20;;;6.93;;
29206;SDS011;16247;50.840;4.382;2022-09-03T07:00:53;6.63;;;4.32;;
29206;SDS011;16247;50.840;4.382;2022-09-03T07:03:24;5.22;;;4.55;;
29206;SDS011;16247;50.840;4.382;2022-09-03T07:05:50;6.60;;;5.13;;
29206;SDS011;16247;50.840;4.382;2022-09-03T07:08:15;7.28;;;4.75;;
29206;SDS011;16247;50.840;4.382;2022-09-03T07:10:44;5.95;;;4.53;;
29206;SDS011;16247;50.840;4.382;2022-09-03T07:13:11;4.70;;;4.05;;
29206;SDS011;16247;50.840;4.382;2022-09-03T07:15:37;6.53;;;4.60;;
29206;SDS011;16247;50.840;4.382;2022-09-03T07:18:04;8.05;;;4.40;;
29206;SDS011;16247;50.840;4.382;2022-09-03T07:20:30;10.65;;;5.10;;
29206;SDS011;16247;50.840;4.382;2022-09-03T07:22:55;6.35;;;4.70;;
29206;SDS011;16247;50.840;4.382;2022-09-03T07:25:22;7.20;;;4.72;;
29206;SDS011;16247;50.840;4.382;2022-09-03T07:27:48;7.43;;;5.33;;
29206;SDS011;16247;50.840;4.382;2022-09-03T07:30:15;7.45;;;5.03;;
29206;SDS011;16247;50.840;4.382;2022-09-03T07:32:43;5.80;;;4.20;;
29206;SDS011;16247;50.840;4.382;2022-09-03T07:35:11;10.43;;;4.75;;
29206;SDS011;16247;50.840;4.382;2022-09-03T07:37:39;7.88;;;4.72;;
29206;SDS011;16247;50.840;4.382;2022-09-03T07:40:07;7.20;;;4.55;;
29206;SDS011;16247;50.840;4.382;2022-09-03T07:42:36;6.85;;;4.82;;
29206;SDS011;16247;50.840;4.382;2022-09-03T07:45:05;5.53;;;4.75;;
29206;SDS011;16247;50.840;4.382;2022-09-03T07:47:35;5.68;;;5.00;;
29206;SDS011;16247;50.840;4.382;2022-09-03T07:50:01;11.23;;;4.70;;
29206;SDS011;16247;50.840;4.382;2022-09-03T07:52:28;7.35;;;4.68;;
29206;SDS011;16247;50.840;4.382;2022-09-03T07:54:54;7.93;;;4.63;;
29206;SDS011;16247;50.840;4.382;2022-09-03T07:57:20;7.45;;;4.40;;
29206;SDS011;16247;50.840;4.382;2022-09-03T07:59:46;6.30;;;4.28;;
29206;SDS011;16247;50.840;4.382;2022-09-03T08:02:12;6.95;;;4.13;;
29206;SDS011;16247;50.840;4.382;2022-09-03T08:04:37;5.63;;;4.13;;
29206;SDS011;16247;50.840;4.382;2022-09-03T08:07:04;9.97;;;4.07;;
29206;SDS011;16247;50.840;4.382;2022-09-03T08:09:30;8.10;;;3.85;;
29206;SDS011;16247;50.840;4.382;2022-09-03T08:11:57;8.18;;;4.60;;
29206;SDS011;16247;50.840;4.382;2022-09-03T08:14:24;7.72;;;4.15;;
29206;SDS011;16247;50.840;4.382;2022-09-03T08:16:50;9.07;;;4.30;;
29206;SDS011;16247;50.840;4.382;2022-09-03T08:19:17;9.07;;;4.32;;
29206;SDS011;16247;50.840;4.382;2022-09-03T08:21:43;5.00;;;3.88;;
29206;SDS011;16247;50.840;4.382;2022-09-03T08:24:09;10.65;;;4.75;;
29206;SDS011;16247;50.840;4.382;2022-09-03T08:26:40;4.40;;;3.70;;
29206;SDS011;16247;50.840;4.382;2022-09-03T08:29:06;8.85;;;3.95;;
29206;SDS011;16247;50.840;4.382;2022-09-03T08:31:33;5.22;;;3.63;;
29206;SDS011;16247;50.840;4.382;2022-09-03T08:34:00;8.50;;;4.40;;
29206;SDS011;16247;50.840;4.382;2022-09-03T08:36:30;5.45;;;4.22;;
29206;SDS011;16247;50.840;4.382;2022-09-03T08:38:59;9.95;;;4.70;;
29206;SDS011;16247;50.840;4.382;2022-09-03T08:44:29;7.43;;;4.57;;
29206;SDS011;16247;50.840;4.382;2022-09-03T08:49:51;7.97;;;4.63;;
29206;SDS011;16247;50.840;4.382;2022-09-03T08:55:49;6.18;;;4.60;;
29206;SDS011;16247;50.840;4.382;2022-09-03T08:58:16;7.72;;;4.68;;
29206;SDS011;16247;50.840;4.382;2022-09-03T09:09:02;5.93;;;4.95;;
29206;SDS011;16247;50.840;4.382;2022-09-03T09:14:38;6.15;;;4.32;;
29206;SDS011;16247;50.840;4.382;2022-09-03T09:20:05;7.90;;;5.55;;
29206;SDS011;16247;50.840;4.382;2022-09-03T09:22:40;6.75;;;6.05;;
29206;SDS011;16247;50.840;4.382;2022-09-03T09:25:16;13.38;;;5.68;;
29206;SDS011;16247;50.840;4.382;2022-09-03T09:27:50;9.68;;;6.10;;
29206;SDS011;16247;50.840;4.382;2022-09-03T09:30:17;6.90;;;5.55;;
29206;SDS011;16247;50.840;4.382;2022-09-03T09:32:43;12.60;;;9.18;;
29206;SDS011;16247;50.840;4.382;2022-09-03T09:37:50;8.68;;;5.97;;
29206;SDS011;16247;50.840;4.382;2022-09-03T09:43:14;10.70;;;5.82;;
29206;SDS011;16247;50.840;4.382;2022-09-03T09:45:44;8.98;;;5.60;;
29206;SDS011;16247;50.840;4.382;2022-09-03T09:48:22;6.35;;;5.72;;
29206;SDS011;16247;50.840;4.382;2022-09-03T09:53:46;10.05;;;5.97;;
29206;SDS011;16247;50.840;4.382;2022-09-03T09:56:22;8.18;;;5.25;;
29206;SDS011;16247;50.840;4.382;2022-09-03T09:58:49;7.20;;;5.57;;
29206;SDS011;16247;50.840;4.382;2022-09-03T10:01:22;16.40;;;5.90;;
29206;SDS011;16247;50.840;4.382;2022-09-03T10:03:51;7.57;;;5.30;;
29206;SDS011;16247;50.840;4.382;2022-09-03T10:06:25;6.90;;;5.40;;
29206;SDS011;16247;50.840;4.382;2022-09-03T10:09:15;10.02;;;5.25;;
29206;SDS011;16247;50.840;4.382;2022-09-03T10:11:47;6.20;;;5.10;;
29206;SDS011;16247;50.840;4.382;2022-09-03T10:17:18;11.38;;;6.60;;
29206;SDS011;16247;50.840;4.382;2022-09-03T10:22:53;13.50;;;6.90;;
29206;SDS011;16247;50.840;4.382;2022-09-03T10:25:20;9.35;;;6.82;;
29206;SDS011;16247;50.840;4.382;2022-09-03T10:27:50;10.73;;;6.55;;
29206;SDS011;16247;50.840;4.382;2022-09-03T10:30:17;12.02;;;7.18;;
29206;SDS011;16247;50.840;4.382;2022-09-03T10:35:51;7.55;;;6.20;;
29206;SDS011;16247;50.840;4.382;2022-09-03T10:38:34;8.55;;;6.22;;
29206;SDS011;16247;50.840;4.382;2022-09-03T10:41:06;8.65;;;6.25;;
29206;SDS011;16247;50.840;4.382;2022-09-03T11:01:00;10.15;;;6.15;;
29206;SDS011;16247;50.840;4.382;2022-09-03T11:03:44;8.05;;;6.45;;
29206;SDS011;16247;50.840;4.382;2022-09-03T11:06:24;8.45;;;6.55;;
29206;SDS011;16247;50.840;4.382;2022-09-03T11:08:54;7.53;;;6.25;;
29206;SDS011;16247;50.840;4.382;2022-09-03T11:11:43;7.82;;;6.15;;
29206;SDS011;16247;50.840;4.382;2022-09-03T11:14:15;11.88;;;6.30;;
29206;SDS011;16247;50.840;4.382;2022-09-03T11:16:54;12.02;;;6.05;;
29206;SDS011;16247;50.840;4.382;2022-09-03T11:19:48;8.30;;;6.35;;
29206;SDS011;16247;50.840;4.382;2022-09-03T11:22:20;9.23;;;5.53;;
29206;SDS011;16247;50.840;4.382;2022-09-03T11:24:50;8.30;;;6.17;;
29206;SDS011;16247;50.840;4.382;2022-09-03T11:30:24;7.22;;;5.80;;
29206;SDS011;16247;50.840;4.382;2022-09-03T11:33:00;10.23;;;5.70;;
29206;SDS011;16247;50.840;4.382;2022-09-03T11:37:59;8.40;;;5.30;;
29206;SDS011;16247;50.840;4.382;2022-09-03T11:45:36;12.10;;;6.40;;
29206;SDS011;16247;50.840;4.382;2022-09-03T11:48:15;6.90;;;5.30;;
29206;SDS011;16247;50.840;4.382;2022-09-03T11:51:01;7.00;;;5.80;;
29206;SDS011;16247;50.840;4.382;2022-09-03T11:53:36;7.10;;;6.27;;
29206;SDS011;16247;50.840;4.382;2022-09-03T11:58:35;6.68;;;5.57;;
29206;SDS011;16247;50.840;4.382;2022-09-03T12:01:09;7.10;;;5.97;;
29206;SDS011;16247;50.840;4.382;2022-09-03T12:06:46;8.82;;;5.38;;
29206;SDS011;16247;50.840;4.382;2022-09-03T12:09:42;9.05;;;5.65;;
29206;SDS011;16247;50.840;4.382;2022-09-03T12:20:45;9.38;;;6.22;;
29206;SDS011;16247;50.840;4.382;2022-09-03T12:23:13;8.05;;;6.13;;
29206;SDS011;16247;50.840;4.382;2022-09-03T12:25:55;7.07;;;5.10;;
29206;SDS011;16247;50.840;4.382;2022-09-03T12:28:24;5.47;;;4.53;;
29206;SDS011;16247;50.840;4.382;2022-09-03T12:30:53;6.40;;;5.70;;
29206;SDS011;16247;50.840;4.382;2022-09-03T12:33:29;6.40;;;5.80;;
29206;SDS011;16247;50.840;4.382;2022-09-03T12:35:59;11.20;;;6.30;;
29206;SDS011;16247;50.840;4.382;2022-09-03T12:38:26;6.85;;;5.80;;
29206;SDS011;16247;50.840;4.382;2022-09-03T12:40:53;8.43;;;5.38;;
29206;SDS011;16247;50.840;4.382;2022-09-03T12:43:25;6.00;;;4.93;;
29206;SDS011;16247;50.840;4.382;2022-09-03T12:45:53;7.18;;;5.75;;
29206;SDS011;16247;50.840;4.382;2022-09-03T12:48:19;6.13;;;5.10;;
29206;SDS011;16247;50.840;4.382;2022-09-03T12:50:46;8.02;;;4.75;;
29206;SDS011;16247;50.840;4.382;2022-09-03T12:53:16;5.32;;;4.18;;
29206;SDS011;16247;50.840;4.382;2022-09-03T12:55:50;8.27;;;4.47;;
29206;SDS011;16247;50.840;4.382;2022-09-03T12:58:35;4.22;;;3.83;;
29206;SDS011;16247;50.840;4.382;2022-09-03T13:01:32;5.32;;;4.60;;
29206;SDS011;16247;50.840;4.382;2022-09-03T13:04:05;6.03;;;4.70;;
29206;SDS011;16247;50.840;4.382;2022-09-03T13:09:40;8.20;;;5.88;;
29206;SDS011;16247;50.840;4.382;2022-09-03T13:12:09;5.50;;;4.30;;
29206;SDS011;16247;50.840;4.382;2022-09-03T13:15:06;5.10;;;4.53;;
29206;SDS011;16247;50.840;4.382;2022-09-03T13:20:30;5.35;;;4.20;;
29206;SDS011;16247;50.840;4.382;2022-09-03T13:23:34;6.75;;;4.63;;
29206;SDS011;16247;50.840;4.382;2022-09-03T13:26:24;7.38;;;4.32;;
29206;SDS011;16247;50.840;4.382;2022-09-03T13:35:25;4.57;;;4.10;;
29206;SDS011;16247;50.840;4.382;2022-09-03T13:38:08;5.35;;;4.85;;
29206;SDS011;16247;50.840;4.382;2022-09-03T13:40:44;4.90;;;3.92;;
29206;SDS011;16247;50.840;4.382;2022-09-03T13:48:47;6.60;;;2.92;;
29206;SDS011;16247;50.840;4.382;2022-09-03T13:51:55;3.33;;;2.58;;
29206;SDS011;16247;50.840;4.382;2022-09-03T13:54:37;5.05;;;2.33;;
29206;SDS011;16247;50.840;4.382;2022-09-03T13:57:21;4.40;;;2.65;;
29206;SDS011;16247;50.840;4.382;2022-09-03T14:00:11;3.88;;;2.70;;
29206;SDS011;16247;50.840;4.382;2022-09-03T14:02:50;3.15;;;2.83;;
29206;SDS011;16247;50.840;4.382;2022-09-03T14:05:33;2.30;;;2.10;;
29206;SDS011;16247;50.840;4.382;2022-09-03T14:16:55;2.58;;;2.20;;
29206;SDS011;16247;50.840;4.382;2022-09-03T14:19:34;4.90;;;2.83;;
29206;SDS011;16247;50.840;4.382;2022-09-03T14:27:37;5.40;;;3.13;;
29206;SDS011;16247;50.840;4.382;2022-09-03T14:30:05;4.97;;;2.30;;
29206;SDS011;16247;50.840;4.382;2022-09-03T14:32:48;5.60;;;3.80;;
29206;SDS011;16247;50.840;4.382;2022-09-03T14:35:38;6.40;;;3.15;;
29206;SDS011;16247;50.840;4.382;2022-09-03T14:38:21;3.60;;;2.90;;
29206;SDS011;16247;50.840;4.382;2022-09-03T14:41:15;4.03;;;3.00;;
29206;SDS011;16247;50.840;4.382;2022-09-03T14:43:52;6.22;;;3.20;;
29206;SDS011;16247;50.840;4.382;2022-09-03T14:46:40;10.00;;;3.78;;
29206;SDS011;16247;50.840;4.382;2022-09-03T14:52:18;15.02;;;4.55;;
29206;SDS011;16247;50.840;4.382;2022-09-03T14:58:04;5.93;;;3.95;;
29206;SDS011;16247;50.840;4.382;2022-09-03T15:00:47;14.13;;;5.20;;
29206;SDS011;16247;50.840;4.382;2022-09-03T15:03:59;11.00;;;4.95;;
29206;SDS011;16247;50.840;4.382;2022-09-03T15:09:37;9.40;;;5.35;;
29206;SDS011;16247;50.840;4.382;2022-09-03T15:15:11;5.70;;;4.60;;
29206;SDS011;16247;50.840;4.382;2022-09-03T15:20:23;6.75;;;4.65;;
29206;SDS011;16247;50.840;4.382;2022-09-03T15:33:59;7.60;;;6.03;;
29206;SDS011;16247;50.840;4.382;2022-09-03T15:36:51;9.13;;;6.30;;
29206;SDS011;16247;50.840;4.382;2022-09-03T15:39:24;9.27;;;5.82;;
29206;SDS011;16247;50.840;4.382;2022-09-03T15:44:47;10.05;;;7.35;;
29206;SDS011;16247;50.840;4.382;2022-09-03T15:55:39;9.45;;;4.72;;
29206;SDS011;16247;50.840;4.382;2022-09-03T15:58:25;8.88;;;5.35;;
29206;SDS011;16247;50.840;4.382;2022-09-03T16:00:59;5.75;;;5.18;;
29206;SDS011;16247;50.840;4.382;2022-09-03T16:03:38;6.80;;;5.30;;
29206;SDS011;16247;50.840;4.382;2022-09-03T16:14:29;9.35;;;6.80;;
29206;SDS011;16247;50.840;4.382;2022-09-03T16:19:45;8.30;;;6.22;;
29206;SDS011;16247;50.840;4.382;2022-09-03T16:25:15;9.18;;;7.85;;
29206;SDS011;16247;50.840;4.382;2022-09-03T16:27:57;9.57;;;6.60;;
29206;SDS011;16247;50.840;4.382;2022-09-03T16:43:55;11.85;;;6.90;;
29206;SDS011;16247;50.840;4.382;2022-09-03T17:05:58;6.38;;;5.35;;
29206;SDS011;16247;50.840;4.382;2022-09-03T17:08:42;6.05;;;5.13;;
29206;SDS011;16247;50.840;4.382;2022-09-03T17:17:04;12.80;;;7.97;;
29206;SDS011;16247;50.840;4.382;2022-09-03T17:19:43;6.32;;;5.72;;
29206;SDS011;16247;50.840;4.382;2022-09-03T17:24:54;5.82;;;4.82;;
29206;SDS011;16247;50.840;4.382;2022-09-03T17:30:36;9.10;;;6.93;;
29206;SDS011;16247;50.840;4.382;2022-09-03T17:41:17;6.30;;;5.40;;
29206;SDS011;16247;50.840;4.382;2022-09-03T17:43:57;7.78;;;5.20;;
29206;SDS011;16247;50.840;4.382;2022-09-03T17:51:46;7.70;;;6.45;;
29206;SDS011;16247;50.840;4.382;2022-09-03T17:57:21;9.95;;;7.25;;
29206;SDS011;16247;50.840;4.382;2022-09-03T18:05:16;7.15;;;5.85;;
29206;SDS011;16247;50.840;4.382;2022-09-03T18:07:48;9.38;;;6.18;;
29206;SDS011;16247;50.840;4.382;2022-09-03T18:10:26;6.95;;;6.10;;
29206;SDS011;16247;50.840;4.382;2022-09-03T18:18:47;7.60;;;6.80;;
29206;SDS011;16247;50.840;4.382;2022-09-03T18:21:22;9.73;;;7.75;;
29206;SDS011;16247;50.840;4.382;2022-09-03T18:27:16;9.77;;;7.30;;
29206;SDS011;16247;50.840;4.382;2022-09-03T18:30:22;11.98;;;8.10;;
29206;SDS011;16247;50.840;4.382;2022-09-03T18:33:08;13.55;;;8.07;;
29206;SDS011;16247;50.840;4.382;2022-09-03T18:35:53;10.55;;;7.13;;
29206;SDS011;16247;50.840;4.382;2022-09-03T18:38:37;11.02;;;7.00;;
29206;SDS011;16247;50.840;4.382;2022-09-03T18:44:28;7.18;;;5.63;;
29206;SDS011;16247;50.840;4.382;2022-09-03T18:47:26;8.05;;;5.38;;
29206;SDS011;16247;50.840;4.382;2022-09-03T18:50:31;7.93;;;5.13;;
29206;SDS011;16247;50.840;4.382;2022-09-03T19:02:16;6.07;;;3.97;;
29206;SDS011;16247;50.840;4.382;2022-09-03T19:05:29;6.75;;;4.97;;
29206;SDS011;16247;50.840;4.382;2022-09-03T19:08:33;15.38;;;9.52;;
29206;SDS011;16247;50.840;4.382;2022-09-03T19:20:39;6.30;;;4.05;;
29206;SDS011;16247;50.840;4.382;2022-09-03T19:23:32;6.88;;;4.55;;
29206;SDS011;16247;50.840;4.382;2022-09-03T19:32:17;4.90;;;3.55;;
29206;SDS011;16247;50.840;4.382;2022-09-03T19:35:18;3.83;;;3.25;;
29206;SDS011;16247;50.840;4.382;2022-09-03T19:38:12;5.03;;;3.53;;
29206;SDS011;16247;50.840;4.382;2022-09-03T19:41:20;4.60;;;3.50;;
29206;SDS011;16247;50.840;4.382;2022-09-03T19:47:38;6.82;;;3.78;;
29206;SDS011;16247;50.840;4.382;2022-09-03T19:50:31;9.30;;;4.47;;
29206;SDS011;16247;50.840;4.382;2022-09-03T19:53:25;4.80;;;4.25;;
29206;SDS011;16247;50.840;4.382;2022-09-03T19:56:14;6.72;;;4.43;;
29206;SDS011;16247;50.840;4.382;2022-09-03T19:59:16;5.72;;;4.00;;
29206;SDS011;16247;50.840;4.382;2022-09-03T20:02:03;4.97;;;3.88;;
29206;SDS011;16247;50.840;4.382;2022-09-03T20:04:53;6.80;;;5.05;;
29206;SDS011;16247;50.840;4.382;2022-09-03T20:07:41;7.97;;;4.78;;
29206;SDS011;16247;50.840;4.382;2022-09-03T20:10:26;10.50;;;5.80;;
29206;SDS011;16247;50.840;4.382;2022-09-03T20:13:07;7.78;;;6.22;;
29206;SDS011;16247;50.840;4.382;2022-09-03T20:21:49;9.23;;;5.40;;
29206;SDS011;16247;50.840;4.382;2022-09-03T20:26:46;7.30;;;5.20;;
29206;SDS011;16247;50.840;4.382;2022-09-03T20:35:05;12.13;;;6.28;;
29206;SDS011;16247;50.840;4.382;2022-09-03T20:37:38;10.30;;;5.40;;
29206;SDS011;16247;50.840;4.382;2022-09-03T20:42:55;9.88;;;5.90;;
29206;SDS011;16247;50.840;4.382;2022-09-03T20:45:51;10.00;;;5.20;;
29206;SDS011;16247;50.840;4.382;2022-09-03T20:48:43;10.20;;;5.63;;
29206;SDS011;16247;50.840;4.382;2022-09-03T20:51:22;10.65;;;5.43;;
29206;SDS011;16247;50.840;4.382;2022-09-03T21:08:19;9.38;;;5.28;;
29206;SDS011;16247;50.840;4.382;2022-09-03T21:11:09;5.63;;;5.00;;
29206;SDS011;16247;50.840;4.382;2022-09-03T21:22:24;8.52;;;5.70;;
29206;SDS011;16247;50.840;4.382;2022-09-03T21:25:14;8.05;;;5.45;;
29206;SDS011;16247;50.840;4.382;2022-09-03T21:27:50;8.23;;;5.68;;
29206;SDS011;16247;50.840;4.382;2022-09-03T21:30:22;6.72;;;5.22;;
29206;SDS011;16247;50.840;4.382;2022-09-03T21:33:08;6.65;;;5.25;;
29206;SDS011;16247;50.840;4.382;2022-09-03T21:35:43;7.60;;;4.88;;
29206;SDS011;16247;50.840;4.382;2022-09-03T21:38:18;5.30;;;4.80;;
29206;SDS011;16247;50.840;4.382;2022-09-03T21:40:51;6.18;;;4.80;;
29206;SDS011;16247;50.840;4.382;2022-09-03T21:46:40;6.40;;;4.25;;
29206;SDS011;16247;50.840;4.382;2022-09-03T21:56:07;6.70;;;4.28;;
29206;SDS011;16247;50.840;4.382;2022-09-03T21:58:31;6.50;;;5.10;;
29206;SDS011;16247;50.840;4.382;2022-09-03T22:01:27;7.65;;;4.38;;
29206;SDS011;16247;50.840;4.382;2022-09-03T22:03:56;7.93;;;4.55;;
29206;SDS011;16247;50.840;4.382;2022-09-03T22:06:24;5.63;;;4.43;;
29206;SDS011;16247;50.840;4.382;2022-09-03T22:09:00;7.65;;;4.43;;
29206;SDS011;16247;50.840;4.382;2022-09-03T22:12:26;8.75;;;5.20;;